CheckWX is a tool to help pilots better visualize weather data.  It is not intended as a substitute for an official pre-flight weather briefing.

09:21:04 UTC

KARV METAR
Lakeland / Noble F Lee Memorial Field Airport
Minocqua-Woodruff, Wisconsin, USA
Current

26 mins ago

KARV 180855Z AUTO 12004KT 10SM CLR 01/M01 A2998 RMK AO2 T00071009
Observed
Oct-18 @ 08:55 UTC
Wind
  • 120° at 4 KTS
Visibility
10 SM
Flight Rules
VFR
Cloud Levels
  • Clear skies
Temperature
C / 34°F
Dewpoint
-1°C / 30°F
Humidity
87%
Altimeter
29.98" Hg
Pressure
1015.22 hPa
Previous

46 mins ago

KARV 180835Z AUTO 00000KT 10SM CLR 01/M01 A2998 RMK AO2 T00051011
Observed
Oct-18 @ 08:35 UTC
Visibility
10 SM
Flight Rules
VFR
Cloud Levels
  • Clear skies
Temperature
C / 34°F
Dewpoint
-1°C / 30°F
Humidity
87%
Altimeter
29.98" Hg
Pressure
1015.22 hPa
Previous

1 hour ago

KARV 180815Z AUTO 00000KT 10SM CLR 01/00 A2998 RMK AO2 T00111004
Observed
Oct-18 @ 08:15 UTC
Visibility
10 SM
Flight Rules
VFR
Cloud Levels
  • Clear skies
Temperature
C / 34°F
Dewpoint
-0°C / 32°F
Humidity
93%
Altimeter
29.98" Hg
Pressure
1015.22 hPa